Flight Track Log - Related Links

Times and Time Zones

All times are in EDT time to prevent confusion due to time zone crossing. See the N58606 flight status page for this flight to view local times or setup timezone preferences in your user account.

Time Position Orientation Groundspeed Altitude Reporting Facility
EDT Latitude Longitude Course Direction KTS MPH feet Rate Location/Type
Tue 12:49:42 PM 38.9500 -77.5167 256° West 187 215 2,000  Level Potomac TRACON
Tue 12:55:35 PM 38.8514 -78.0200 278° West 297 342 15,300 1,937 Climbing Washington Center
Tue 01:06:01 PM 38.9878 -79.3597 272° West 386 444 33,600 1,343 Climbing Washington Center
Tue 01:11:00 PM 39.0069 -80.0233 271° West 377 434 36,000 401 Climbing Washington Center
Tue 01:12:00 PM 39.0083 -80.1492 270° West 377 434 36,000  Level Washington Center
Tue 01:12:46 PM 39.0078 -80.2433 271° West 375 432 36,000  Level Indianapolis Center
Tue 01:13:46 PM 39.0094 -80.3794 271° West 370 426 36,000  Level Indianapolis Center
Tue 01:14:46 PM 39.0108 -80.5103 271° West 370 426 36,000  Level Indianapolis Center
Tue 01:15:46 PM 39.0122 -80.6414 272° West 370 426 36,000  Level Indianapolis Center
Tue 01:16:46 PM 39.0153 -80.7747 291° West 365 420 36,000  Level Indianapolis Center
Tue 01:17:46 PM 39.0536 -80.9017 297° West 365 420 36,000  Level Indianapolis Center
Tue 01:18:46 PM 39.1044 -81.0308 299° West 380 437 36,000  Level Indianapolis Center
Tue 01:19:46 PM 39.1572 -81.1550 299° West 392 451 36,000  Level Indianapolis Center
Tue 01:20:46 PM 39.2097 -81.2792 298° West 397 457 36,000  Level Indianapolis Center
Tue 01:21:46 PM 39.2600 -81.4036 302° West 402 463 36,000  Level Indianapolis Center
Tue 01:22:46 PM 39.3164 -81.5225 303° West 397 457 36,000  Level Indianapolis Center
Tue 01:23:46 PM 39.3767 -81.6444 300° West 397 457 36,000  Level Indianapolis Center
Tue 01:24:46 PM 39.4308 -81.7639 301° West 397 457 36,000  Level Indianapolis Center
Tue 01:25:46 PM 39.4867 -81.8836 302° West 397 457 36,000  Level Indianapolis Center
Tue 01:26:46 PM 39.5425 -82.0008 302° West 397 457 36,000  Level Indianapolis Center
Tue 01:27:46 PM 39.5981 -82.1181 302° West 397 457 36,000  Level Indianapolis Center
Tue 01:28:46 PM 39.6539 -82.2356 301° West 388 447 36,000  Level Indianapolis Center
Tue 01:29:46 PM 39.7092 -82.3533 302° West 388 447 36,000  Level Indianapolis Center
Tue 01:30:46 PM 39.7667 -82.4739 301° West 388 447 36,000  Level Indianapolis Center
Tue 01:31:46 PM 39.8219 -82.5919 300° West 388 447 36,000 -150 Level Indianapolis Center
Tue 01:32:46 PM 39.8769 -82.7156 302° West 388 447 35,700 -550 Descending Indianapolis Center
Tue 01:33:46 PM 39.9278 -82.8233 301° West 388 447 34,900 -350 Descending Indianapolis Center
Tue 01:34:46 PM 39.9828 -82.9447 301° West 398 458 35,000 50 Climbing Indianapolis Center
Tue 01:35:46 PM 40.0394 -83.0661 301° West 398 458 35,000  Level Indianapolis Center
Tue 01:36:46 PM 40.0942 -83.1853 301° West 393 452 35,000  Level Indianapolis Center
Tue 01:37:46 PM 40.1508 -83.3072 300° West 393 452 35,000  Level Indianapolis Center
Tue 01:38:46 PM 40.2053 -83.4292 301° West 393 452 35,000  Level Indianapolis Center
Tue 01:39:46 PM 40.2614 -83.5517 300° West 398 458 35,000  Level Indianapolis Center
Tue 01:40:46 PM 40.3156 -83.6769 301° West 398 458 35,000  Level Indianapolis Center
Tue 01:41:46 PM 40.3697 -83.7967 300° West 398 458 35,000  Level Indianapolis Center
Tue 01:42:46 PM 40.4256 -83.9225 301° West 398 458 35,000  Level Indianapolis Center
Tue 01:43:46 PM 40.4794 -84.0428 300° West 398 458 35,000  Level Indianapolis Center
Tue 01:44:46 PM 40.5350 -84.1689 300° West 398 458 35,000  Level Indianapolis Center
Tue 01:45:46 PM 40.5947 -84.3058 301° West 398 458 35,000 -348 Level Indianapolis Center
Tue 01:47:04 PM 40.6608 -84.4497 300° West 388 447 34,200 -435 Descending Chicago Center
Tue 01:48:04 PM 40.7161 -84.5744 297° West 388 447 34,000 -100 Descending Chicago Center
Tue 01:49:04 PM 40.7675 -84.7050 293° West 388 447 34,000  Level Chicago Center
Tue 01:50:04 PM 40.8106 -84.8419 293° West 400 460 34,000  Level Chicago Center
Tue 01:51:04 PM 40.8556 -84.9844 294° West 412 474 34,000 -400 Level Chicago Center
Tue 01:52:04 PM 40.9025 -85.1217 293° West 412 474 33,200 -900 Descending Chicago Center
Tue 01:53:04 PM 40.9472 -85.2644 295° West 412 474 32,200 -950 Descending Chicago Center
Tue 01:54:04 PM 40.9961 -85.4044 292° West 412 474 31,300 -600 Descending Chicago Center
Tue 01:55:04 PM 41.0406 -85.5478 294° West 417 480 31,000 -150 Descending Chicago Center
Tue 01:56:04 PM 41.0869 -85.6883 294° West 417 480 31,000 -100 Level Chicago Center
Tue 01:57:04 PM 41.1353 -85.8344 293° West 422 486 30,800 -1,600 Descending Chicago Center
Tue 01:58:04 PM 41.1792 -85.9728 294° West 422 486 27,800 -3,250 Descending Chicago Center
Tue 01:59:04 PM 41.2247 -86.1086 293° West 417 480 24,300 -1,900 Descending Chicago Center
Tue 02:00:04 PM 41.2703 -86.2500 293° West 417 480 24,000 -150 Descending Chicago Center
Tue 02:01:04 PM 41.3136 -86.3889 292° West 412 474 24,000  Level Chicago Center
Tue 02:02:04 PM 41.3569 -86.5308 293° West 412 474 24,000 -450 Level Chicago Center
Tue 02:03:04 PM 41.4019 -86.6731 295° West 412 474 23,100 -1,650 Descending Chicago Center
Tue 02:04:04 PM 41.4489 -86.8094 292° West 406 467 20,700 -2,450 Descending Chicago Center
Tue 02:05:04 PM 41.4872 -86.9383 294° West 399 459 18,200 -2,400 Descending Chicago Center
Tue 02:06:04 PM 41.5292 -87.0644 288° West 385 443 15,900 -2,688 Descending Chicago Center
Tue 02:07:09 PM 41.5667 -87.2167 309° West 364 419 12,600 -2,900 Descending Chicago TRACON
Tue 02:08:04 PM 41.6258 -87.3136 310° West 361 415 10,100 -1,238 Descending Chicago Center
Tue 02:09:15 PM 41.7000 -87.4333 309° West 334 384 10,000 -48 Descending Chicago TRACON
Tue 02:10:10 PM 41.7500 -87.5167 309° West 328 377 10,000 -417 Level Chicago TRACON
Tue 02:11:10 PM 41.8000 -87.6000 281° West 279 321 9,200 -1,190 Descending Chicago TRACON
Tue 02:12:16 PM 41.8167 -87.7167 270° West 284 327 7,500 -1,286 Descending Chicago TRACON
Tue 02:13:16 PM 41.8167 -87.8167 284° West 268 308 6,500 -889 Descending Chicago TRACON
Tue 02:14:04 PM 41.8283 -87.8814 302° West 266 306 5,900 -1,233 Descending Chicago Center
Tue 02:16:16 PM 41.8833 -88.0000 302° West 204 235 2,800 -1,409 Descending Chicago TRACON

Login

Don't have an account? Register now (free) for customized features, flight alerts, and more!